sensor_id;sensor_type;location;lat;lon;timestamp;pressure;altitude;pressure_sealevel;temperature;humidity
80566;BME280;69915;54.862;10.730;2024-03-06T00:02:00;102186.53;;;3.38;100.00
80566;BME280;69915;54.862;10.730;2024-03-06T00:04:26;102190.50;;;3.29;100.00
80566;BME280;69915;54.862;10.730;2024-03-06T00:06:52;102193.38;;;3.27;100.00
80566;BME280;69915;54.862;10.730;2024-03-06T00:09:19;102197.56;;;3.17;100.00
80566;BME280;69915;54.862;10.730;2024-03-06T00:11:44;102199.66;;;3.15;100.00
80566;BME280;69915;54.862;10.730;2024-03-06T00:14:10;102192.59;;;3.14;100.00
80566;BME280;69915;54.862;10.730;2024-03-06T00:16:38;102192.34;;;3.15;100.00
80566;BME280;69915;54.862;10.730;2024-03-06T00:19:04;102189.22;;;3.18;100.00
80566;BME280;69915;54.862;10.730;2024-03-06T00:21:29;102198.81;;;3.14;100.00
80566;BME280;69915;54.862;10.730;2024-03-06T00:23:55;102192.59;;;3.14;100.00
80566;BME280;69915;54.862;10.730;2024-03-06T00:26:21;102197.16;;;3.13;100.00
80566;BME280;69915;54.862;10.730;2024-03-06T00:28:47;102194.25;;;3.15;100.00
80566;BME280;69915;54.862;10.730;2024-03-06T00:31:12;102194.22;;;3.21;100.00
80566;BME280;69915;54.862;10.730;2024-03-06T00:33:38;102197.56;;;3.17;100.00
80566;BME280;69915;54.862;10.730;2024-03-06T00:36:05;102199.25;;;3.18;100.00
80566;BME280;69915;54.862;10.730;2024-03-06T00:38:31;102198.19;;;3.19;100.00
80566;BME280;69915;54.862;10.730;2024-03-06T00:40:57;102199.84;;;3.20;100.00
80566;BME280;69915;54.862;10.730;2024-03-06T00:43:23;102207.97;;;3.20;100.00
80566;BME280;69915;54.862;10.730;2024-03-06T00:45:49;102213.13;;;3.21;100.00
80566;BME280;69915;54.862;10.730;2024-03-06T00:48:14;102203.16;;;3.22;100.00
80566;BME280;69915;54.862;10.730;2024-03-06T00:50:42;102198.38;;;3.30;100.00
80566;BME280;69915;54.862;10.730;2024-03-06T00:53:07;102204.00;;;3.29;100.00
80566;BME280;69915;54.862;10.730;2024-03-06T00:55:33;102199.63;;;3.28;100.00
80566;BME280;69915;54.862;10.730;2024-03-06T00:57:58;102205.03;;;3.28;100.00
80566;BME280;69915;54.862;10.730;2024-03-06T01:00:23;102199.03;;;3.26;100.00
80566;BME280;69915;54.862;10.730;2024-03-06T01:02:49;102204.19;;;3.34;100.00
80566;BME280;69915;54.862;10.730;2024-03-06T01:05:15;102209.00;;;3.32;100.00
80566;BME280;69915;54.862;10.730;2024-03-06T01:07:41;102212.31;;;3.34;100.00
80566;BME280;69915;54.862;10.730;2024-03-06T01:10:08;102200.47;;;3.35;100.00
80566;BME280;69915;54.862;10.730;2024-03-06T01:12:34;102201.06;;;3.37;100.00
80566;BME280;69915;54.862;10.730;2024-03-06T01:15:00;102210.44;;;3.41;100.00
80566;BME280;69915;54.862;10.730;2024-03-06T01:17:26;102195.47;;;3.39;100.00
80566;BME280;69915;54.862;10.730;2024-03-06T01:19:52;102202.75;;;3.38;100.00
80566;BME280;69915;54.862;10.730;2024-03-06T01:22:17;102195.06;;;3.35;100.00
80566;BME280;69915;54.862;10.730;2024-03-06T01:24:43;102199.63;;;3.35;100.00
80566;BME280;69915;54.862;10.730;2024-03-06T01:27:09;102209.59;;;3.47;100.00
80566;BME280;69915;54.862;10.730;2024-03-06T01:29:35;102210.84;;;3.51;100.00
80566;BME280;69915;54.862;10.730;2024-03-06T01:32:01;102208.75;;;3.47;100.00
80566;BME280;69915;54.862;10.730;2024-03-06T01:34:27;102205.44;;;3.51;100.00
80566;BME280;69915;54.862;10.730;2024-03-06T01:36:52;102215.19;;;3.46;100.00
80566;BME280;69915;54.862;10.730;2024-03-06T01:39:18;102209.19;;;3.37;100.00
80566;BME280;69915;54.862;10.730;2024-03-06T01:41:48;102208.34;;;3.43;100.00
80566;BME280;69915;54.862;10.730;2024-03-06T01:44:14;102222.50;;;3.45;100.00
80566;BME280;69915;54.862;10.730;2024-03-06T01:46:40;102230.81;;;3.44;100.00
80566;BME280;69915;54.862;10.730;2024-03-06T01:49:07;102223.34;;;3.39;100.00
80566;BME280;69915;54.862;10.730;2024-03-06T01:51:32;102223.34;;;3.39;100.00
80566;BME280;69915;54.862;10.730;2024-03-06T01:54:00;102214.16;;;3.40;100.00
80566;BME280;69915;54.862;10.730;2024-03-06T01:56:30;102222.09;;;3.42;100.00
80566;BME280;69915;54.862;10.730;2024-03-06T01:58:56;102210.84;;;3.38;100.00
80566;BME280;69915;54.862;10.730;2024-03-06T02:01:22;102212.53;;;3.39;100.00
80566;BME280;69915;54.862;10.730;2024-03-06T02:03:48;102222.50;;;3.39;100.00
80566;BME280;69915;54.862;10.730;2024-03-06T02:06:14;102218.13;;;3.38;100.00
80566;BME280;69915;54.862;10.730;2024-03-06T02:08:41;102223.75;;;3.36;100.00
80566;BME280;69915;54.862;10.730;2024-03-06T02:11:06;102228.34;;;3.36;100.00
80566;BME280;69915;54.862;10.730;2024-03-06T02:13:33;102230.41;;;3.27;100.00
80566;BME280;69915;54.862;10.730;2024-03-06T02:15:58;102223.94;;;3.28;100.00
80566;BME280;69915;54.862;10.730;2024-03-06T02:18:24;102223.34;;;3.26;100.00
80566;BME280;69915;54.862;10.730;2024-03-06T02:20:50;102228.94;;;3.24;100.00
80566;BME280;69915;54.862;10.730;2024-03-06T02:23:16;102214.81;;;3.29;100.00
80566;BME280;69915;54.862;10.730;2024-03-06T02:25:44;102220.00;;;3.30;100.00
80566;BME280;69915;54.862;10.730;2024-03-06T02:28:12;102213.38;;;3.33;100.00
80566;BME280;69915;54.862;10.730;2024-03-06T02:30:38;102210.03;;;3.31;100.00
80566;BME280;69915;54.862;10.730;2024-03-06T02:33:04;102227.06;;;3.25;100.00
80566;BME280;69915;54.862;10.730;2024-03-06T02:35:31;102226.66;;;3.28;100.00
80566;BME280;69915;54.862;10.730;2024-03-06T02:37:57;102222.09;;;3.28;100.00
80566;BME280;69915;54.862;10.730;2024-03-06T02:40:23;102221.25;;;3.28;100.00
80566;BME280;69915;54.862;10.730;2024-03-06T02:42:48;102227.06;;;3.32;100.00
80566;BME280;69915;54.862;10.730;2024-03-06T02:45:14;102226.88;;;3.33;100.00
80566;BME280;69915;54.862;10.730;2024-03-06T02:47:39;102226.66;;;3.28;100.00
80566;BME280;69915;54.862;10.730;2024-03-06T02:50:05;102232.06;;;3.21;100.00
80566;BME280;69915;54.862;10.730;2024-03-06T02:52:32;102227.50;;;3.22;100.00
80566;BME280;69915;54.862;10.730;2024-03-06T02:54:58;102230.00;;;3.23;100.00
80566;BME280;69915;54.862;10.730;2024-03-06T02:57:27;102229.16;;;3.23;100.00
80566;BME280;69915;54.862;10.730;2024-03-06T02:59:54;102225.81;;;3.27;100.00
80566;BME280;69915;54.862;10.730;2024-03-06T03:02:20;102230.00;;;3.30;100.00
80566;BME280;69915;54.862;10.730;2024-03-06T03:04:45;102241.22;;;3.27;100.00
80566;BME280;69915;54.862;10.730;2024-03-06T03:07:11;102231.88;;;3.23;100.00
80566;BME280;69915;54.862;10.730;2024-03-06T03:09:37;102230.41;;;3.14;100.00
80566;BME280;69915;54.862;10.730;2024-03-06T03:12:03;102239.13;;;3.22;100.00
80566;BME280;69915;54.862;10.730;2024-03-06T03:14:29;102231.25;;;3.21;100.00
80566;BME280;69915;54.862;10.730;2024-03-06T03:16:54;102237.88;;;3.25;100.00
80566;BME280;69915;54.862;10.730;2024-03-06T03:19:20;102238.13;;;3.30;100.00
80566;BME280;69915;54.862;10.730;2024-03-06T03:21:45;102238.13;;;3.30;100.00
80566;BME280;69915;54.862;10.730;2024-03-06T03:24:11;102237.69;;;3.33;100.00
80566;BME280;69915;54.862;10.730;2024-03-06T03:26:36;102233.31;;;3.32;100.00
80566;BME280;69915;54.862;10.730;2024-03-06T03:29:02;102237.06;;;3.31;100.00
80566;BME280;69915;54.862;10.730;2024-03-06T03:31:28;102239.13;;;3.22;100.00
80566;BME280;69915;54.862;10.730;2024-03-06T03:33:54;102233.72;;;3.16;100.00
80566;BME280;69915;54.862;10.730;2024-03-06T03:36:20;102240.81;;;3.17;100.00
80566;BME280;69915;54.862;10.730;2024-03-06T03:38:45;102240.78;;;3.10;100.00
80566;BME280;69915;54.862;10.730;2024-03-06T03:41:12;102234.16;;;3.26;100.00
80566;BME280;69915;54.862;10.730;2024-03-06T03:43:41;102243.28;;;3.25;100.00
80566;BME280;69915;54.862;10.730;2024-03-06T03:46:07;102245.56;;;3.21;100.00
80566;BME280;69915;54.862;10.730;2024-03-06T03:48:32;102250.78;;;3.23;100.00
80566;BME280;69915;54.862;10.730;2024-03-06T03:51:04;102245.38;;;3.23;100.00
80566;BME280;69915;54.862;10.730;2024-03-06T03:53:30;102254.09;;;3.25;100.00
80566;BME280;69915;54.862;10.730;2024-03-06T03:55:56;102263.47;;;3.29;100.00
80566;BME280;69915;54.862;10.730;2024-03-06T03:58:22;102246.22;;;3.30;100.00
80566;BME280;69915;54.862;10.730;2024-03-06T04:00:47;102246.22;;;3.30;100.00
80566;BME280;69915;54.862;10.730;2024-03-06T04:03:13;102260.34;;;3.25;100.00
80566;BME280;69915;54.862;10.730;2024-03-06T04:05:38;102264.72;;;3.33;100.00
80566;BME280;69915;54.862;10.730;2024-03-06T04:08:04;102262.03;;;3.26;100.00
80566;BME280;69915;54.862;10.730;2024-03-06T04:10:31;102261.19;;;3.26;100.00
80566;BME280;69915;54.862;10.730;2024-03-06T04:12:58;102265.75;;;3.25;100.00
80566;BME280;69915;54.862;10.730;2024-03-06T04:15:25;102270.94;;;3.34;100.00
80566;BME280;69915;54.862;10.730;2024-03-06T04:17:51;102277.19;;;3.34;100.00
80566;BME280;69915;54.862;10.730;2024-03-06T04:20:17;102260.16;;;3.27;100.00
80566;BME280;69915;54.862;10.730;2024-03-06T04:22:43;102274.06;;;3.37;100.00
80566;BME280;69915;54.862;10.730;2024-03-06T04:25:09;102266.16;;;3.29;100.00
80566;BME280;69915;54.862;10.730;2024-03-06T04:27:35;102262.84;;;3.27;100.00
80566;BME280;69915;54.862;10.730;2024-03-06T04:30:00;102261.38;;;3.24;100.00
80566;BME280;69915;54.862;10.730;2024-03-06T04:32:26;102270.09;;;3.40;100.00
80566;BME280;69915;54.862;10.730;2024-03-06T04:34:51;102276.16;;;3.42;100.00
80566;BME280;69915;54.862;10.730;2024-03-06T04:37:19;102281.16;;;3.45;100.00
80566;BME280;69915;54.862;10.730;2024-03-06T04:39:44;102289.47;;;3.50;100.00
80566;BME280;69915;54.862;10.730;2024-03-06T04:42:10;102272.00;;;3.33;100.00
80566;BME280;69915;54.862;10.730;2024-03-06T04:44:36;102290.28;;;3.44;100.00
80566;BME280;69915;54.862;10.730;2024-03-06T04:47:01;102284.47;;;3.40;100.00
80566;BME280;69915;54.862;10.730;2024-03-06T04:49:27;102290.72;;;3.41;100.00
80566;BME280;69915;54.862;10.730;2024-03-06T04:51:53;102294.44;;;3.40;100.00
80566;BME280;69915;54.862;10.730;2024-03-06T04:54:18;102289.44;;;3.43;100.00
80566;BME280;69915;54.862;10.730;2024-03-06T04:56:44;102292.56;;;3.47;100.00
80566;BME280;69915;54.862;10.730;2024-03-06T04:59:09;102293.59;;;3.52;100.00
80566;BME280;69915;54.862;10.730;2024-03-06T05:01:35;102290.50;;;3.55;100.00
80566;BME280;69915;54.862;10.730;2024-03-06T05:04:00;102288.44;;;3.57;100.00
80566;BME280;69915;54.862;10.730;2024-03-06T05:06:26;102295.06;;;3.68;100.00
80566;BME280;69915;54.862;10.730;2024-03-06T05:08:51;102289.88;;;3.66;100.00
80566;BME280;69915;54.862;10.730;2024-03-06T05:11:17;102291.94;;;3.64;100.00
80566;BME280;69915;54.862;10.730;2024-03-06T05:13:42;102296.97;;;3.54;100.00
80566;BME280;69915;54.862;10.730;2024-03-06T05:16:08;102300.69;;;3.66;100.00
80566;BME280;69915;54.862;10.730;2024-03-06T05:18:34;102301.53;;;3.67;100.00
80566;BME280;69915;54.862;10.730;2024-03-06T05:21:00;102314.41;;;3.71;100.00
80566;BME280;69915;54.862;10.730;2024-03-06T05:23:26;102310.25;;;3.75;100.00
80566;BME280;69915;54.862;10.730;2024-03-06T05:25:52;102312.53;;;3.72;100.00
80566;BME280;69915;54.862;10.730;2024-03-06T05:28:17;102308.16;;;3.84;100.00
80566;BME280;69915;54.862;10.730;2024-03-06T05:30:43;102316.03;;;3.92;100.00
80566;BME280;69915;54.862;10.730;2024-03-06T05:33:08;102319.81;;;3.91;100.00
80566;BME280;69915;54.862;10.730;2024-03-06T05:35:34;102319.41;;;3.88;100.00
80566;BME280;69915;54.862;10.730;2024-03-06T05:38:00;102322.94;;;3.88;100.00
80566;BME280;69915;54.862;10.730;2024-03-06T05:40:25;102328.94;;;4.03;100.00
80566;BME280;69915;54.862;10.730;2024-03-06T05:42:51;102330.59;;;3.98;100.00
80566;BME280;69915;54.862;10.730;2024-03-06T05:45:16;102329.34;;;4.07;100.00
80566;BME280;69915;54.862;10.730;2024-03-06T05:47:42;102331.59;;;4.23;100.00
80566;BME280;69915;54.862;10.730;2024-03-06T05:50:08;102333.09;;;4.19;100.00
80566;BME280;69915;54.862;10.730;2024-03-06T05:52:36;102335.16;;;4.17;100.00
80566;BME280;69915;54.862;10.730;2024-03-06T05:55:02;102341.81;;;4.27;100.00
80566;BME280;69915;54.862;10.730;2024-03-06T05:57:28;102339.50;;;4.31;100.00
80566;BME280;69915;54.862;10.730;2024-03-06T05:59:53;102341.41;;;4.24;100.00
80566;BME280;69915;54.862;10.730;2024-03-06T06:02:19;102337.81;;;4.36;100.00
80566;BME280;69915;54.862;10.730;2024-03-06T06:04:46;102341.84;;;4.14;100.00
80566;BME280;69915;54.862;10.730;2024-03-06T06:07:11;102347.00;;;4.29;100.00
80566;BME280;69915;54.862;10.730;2024-03-06T06:09:37;102347.81;;;4.36;100.00
80566;BME280;69915;54.862;10.730;2024-03-06T06:12:03;102345.31;;;4.34;100.00
80566;BME280;69915;54.862;10.730;2024-03-06T06:14:28;102346.38;;;4.40;100.00
80566;BME280;69915;54.862;10.730;2024-03-06T06:16:56;102346.56;;;4.38;100.00
80566;BME280;69915;54.862;10.730;2024-03-06T06:19:21;102365.06;;;4.48;100.00
80566;BME280;69915;54.862;10.730;2024-03-06T06:21:47;102361.75;;;4.46;100.00
80566;BME280;69915;54.862;10.730;2024-03-06T06:24:13;102353.00;;;4.44;100.00
80566;BME280;69915;54.862;10.730;2024-03-06T06:26:39;102356.34;;;4.39;100.00
80566;BME280;69915;54.862;10.730;2024-03-06T06:29:04;102358.63;;;4.49;100.00
80566;BME280;69915;54.862;10.730;2024-03-06T06:31:30;102367.78;;;4.48;100.00
80566;BME280;69915;54.862;10.730;2024-03-06T06:33:55;102375.09;;;4.41;100.00
80566;BME280;69915;54.862;10.730;2024-03-06T06:36:21;102376.50;;;4.50;100.00
80566;BME280;69915;54.862;10.730;2024-03-06T06:38:47;102369.66;;;4.41;100.00
80566;BME280;69915;54.862;10.730;2024-03-06T06:41:14;102379.66;;;4.40;100.00
80566;BME280;69915;54.862;10.730;2024-03-06T06:43:40;102388.84;;;4.46;100.00
80566;BME280;69915;54.862;10.730;2024-03-06T06:46:07;102385.28;;;4.46;100.00
80566;BME280;69915;54.862;10.730;2024-03-06T06:48:33;102392.16;;;4.55;100.00
80566;BME280;69915;54.862;10.730;2024-03-06T06:51:02;102395.47;;;4.57;100.00
80566;BME280;69915;54.862;10.730;2024-03-06T06:53:31;102389.03;;;4.51;100.00
80566;BME280;69915;54.862;10.730;2024-03-06T06:55:58;102392.56;;;4.58;100.00
80566;BME280;69915;54.862;10.730;2024-03-06T06:58:23;102396.91;;;4.59;100.00
80566;BME280;69915;54.862;10.730;2024-03-06T07:00:49;102392.56;;;4.52;100.00
80566;BME280;69915;54.862;10.730;2024-03-06T07:03:15;102391.91;;;4.63;100.00
80566;BME280;69915;54.862;10.730;2024-03-06T07:05:40;102397.53;;;4.61;100.00
80566;BME280;69915;54.862;10.730;2024-03-06T07:08:08;102407.56;;;4.54;100.00
80566;BME280;69915;54.862;10.730;2024-03-06T07:10:34;102403.16;;;4.66;100.00
80566;BME280;69915;54.862;10.730;2024-03-06T07:13:02;102415.66;;;4.67;100.00
80566;BME280;69915;54.862;10.730;2024-03-06T07:15:28;102412.72;;;4.69;100.00
80566;BME280;69915;54.862;10.730;2024-03-06T07:17:54;102409.38;;;4.73;100.00
80566;BME280;69915;54.862;10.730;2024-03-06T07:20:20;102416.25;;;4.76;100.00
80566;BME280;69915;54.862;10.730;2024-03-06T07:22:45;102416.84;;;4.84;100.00
80566;BME280;69915;54.862;10.730;2024-03-06T07:25:11;102422.06;;;4.79;100.00
80566;BME280;69915;54.862;10.730;2024-03-06T07:27:37;102414.34;;;4.83;100.00
80566;BME280;69915;54.862;10.730;2024-03-06T07:30:02;102425.81;;;4.78;100.00
80566;BME280;69915;54.862;10.730;2024-03-06T07:32:28;102432.06;;;4.85;100.00
80566;BME280;69915;54.862;10.730;2024-03-06T07:34:54;102428.34;;;4.80;100.00
80566;BME280;69915;54.862;10.730;2024-03-06T07:37:19;102429.72;;;4.95;100.00
80566;BME280;69915;54.862;10.730;2024-03-06T07:39:45;102428.66;;;4.97;100.00
80566;BME280;69915;54.862;10.730;2024-03-06T07:42:11;102424.06;;;5.04;100.00
80566;BME280;69915;54.862;10.730;2024-03-06T07:44:36;102436.75;;;5.10;100.00
80566;BME280;69915;54.862;10.730;2024-03-06T07:47:02;102447.81;;;5.08;100.00
80566;BME280;69915;54.862;10.730;2024-03-06T07:49:29;102440.56;;;4.95;100.00
80566;BME280;69915;54.862;10.730;2024-03-06T07:51:54;102444.09;;;4.96;100.00
80566;BME280;69915;54.862;10.730;2024-03-06T07:54:20;102444.09;;;4.96;100.00
80566;BME280;69915;54.862;10.730;2024-03-06T07:56:46;102447.66;;;4.97;100.00
80566;BME280;69915;54.862;10.730;2024-03-06T07:59:12;102456.63;;;4.90;100.00
80566;BME280;69915;54.862;10.730;2024-03-06T08:01:38;102464.75;;;4.90;100.00
80566;BME280;69915;54.862;10.730;2024-03-06T08:04:04;102458.47;;;4.97;100.00
80566;BME280;69915;54.862;10.730;2024-03-06T08:06:30;102454.91;;;5.03;100.00
80566;BME280;69915;54.862;10.730;2024-03-06T08:08:58;102464.91;;;5.02;100.00
80566;BME280;69915;54.862;10.730;2024-03-06T08:11:24;102471.78;;;5.05;100.00
80566;BME280;69915;54.862;10.730;2024-03-06T08:13:50;102461.16;;;5.10;100.00
80566;BME280;69915;54.862;10.730;2024-03-06T08:16:15;102466.56;;;5.10;100.00
80566;BME280;69915;54.862;10.730;2024-03-06T08:18:42;102469.84;;;5.25;100.00
80566;BME280;69915;54.862;10.730;2024-03-06T08:21:08;102467.31;;;5.30;100.00
80566;BME280;69915;54.862;10.730;2024-03-06T08:23:34;102471.44;;;5.39;100.00
80566;BME280;69915;54.862;10.730;2024-03-06T08:26:00;102469.38;;;5.34;100.00
80566;BME280;69915;54.862;10.730;2024-03-06T08:28:26;102479.41;;;5.34;100.00
80566;BME280;69915;54.862;10.730;2024-03-06T08:30:52;102482.72;;;5.36;100.00
80566;BME280;69915;54.862;10.730;2024-03-06T08:33:18;102485.50;;;5.23;100.00
80566;BME280;69915;54.862;10.730;2024-03-06T08:35:46;102482.97;;;5.28;100.00
80566;BME280;69915;54.862;10.730;2024-03-06T08:38:12;102490.34;;;5.08;100.00
80566;BME280;69915;54.862;10.730;2024-03-06T08:40:37;102497.44;;;5.09;100.00
80566;BME280;69915;54.862;10.730;2024-03-06T08:43:04;102503.03;;;5.14;100.00
80566;BME280;69915;54.862;10.730;2024-03-06T08:45:29;102503.31;;;4.99;100.00
80566;BME280;69915;54.862;10.730;2024-03-06T08:47:55;102511.59;;;5.11;100.00
80566;BME280;69915;54.862;10.730;2024-03-06T08:50:21;102522.44;;;5.11;100.00
80566;BME280;69915;54.862;10.730;2024-03-06T08:52:46;102517.22;;;5.16;100.00
80566;BME280;69915;54.862;10.730;2024-03-06T08:55:12;102525.53;;;5.21;100.00
80566;BME280;69915;54.862;10.730;2024-03-06T08:57:38;102523.28;;;5.11;100.00
80566;BME280;69915;54.862;10.730;2024-03-06T09:00:06;102522.69;;;5.03;100.00
80566;BME280;69915;54.862;10.730;2024-03-06T09:02:36;102522.44;;;5.17;100.00
80566;BME280;69915;54.862;10.730;2024-03-06T09:05:05;102530.78;;;5.16;100.00
80566;BME280;69915;54.862;10.730;2024-03-06T09:07:31;102539.94;;;5.21;100.00
80566;BME280;69915;54.862;10.730;2024-03-06T09:09:56;102538.50;;;5.19;100.00
80566;BME280;69915;54.862;10.730;2024-03-06T09:12:22;102543.31;;;5.17;100.00
80566;BME280;69915;54.862;10.730;2024-03-06T09:14:48;102554.16;;;5.17;100.00
80566;BME280;69915;54.862;10.730;2024-03-06T09:17:14;102543.88;;;5.32;100.00
80566;BME280;69915;54.862;10.730;2024-03-06T09:19:41;102548.47;;;5.31;100.00
80566;BME280;69915;54.862;10.730;2024-03-06T09:22:07;102539.69;;;5.29;100.00
80566;BME280;69915;54.862;10.730;2024-03-06T09:24:33;102549.03;;;5.46;100.00
80566;BME280;69915;54.862;10.730;2024-03-06T09:27:01;102550.66;;;5.54;100.00
80566;BME280;69915;54.862;10.730;2024-03-06T09:29:26;102552.34;;;5.55;100.00
80566;BME280;69915;54.862;10.730;2024-03-06T09:31:52;102554.44;;;5.53;98.43
80566;BME280;69915;54.862;10.730;2024-03-06T09:34:18;102543.72;;;5.65;97.74
80566;BME280;69915;54.862;10.730;2024-03-06T09:36:48;102563.16;;;5.62;96.45
80566;BME280;69915;54.862;10.730;2024-03-06T09:39:16;102542.66;;;5.66;95.78
80566;BME280;69915;54.862;10.730;2024-03-06T09:41:49;102547.44;;;5.77;95.49
80566;BME280;69915;54.862;10.730;2024-03-06T09:44:16;102549.72;;;5.86;95.92
80566;BME280;69915;54.862;10.730;2024-03-06T09:46:46;102563.44;;;5.91;95.82
80566;BME280;69915;54.862;10.730;2024-03-06T09:49:13;102554.28;;;5.92;94.26
80566;BME280;69915;54.862;10.730;2024-03-06T09:51:45;102552.16;;;5.94;92.62
80566;BME280;69915;54.862;10.730;2024-03-06T09:54:12;102550.47;;;5.93;91.54
80566;BME280;69915;54.862;10.730;2024-03-06T09:56:47;102558.69;;;5.80;91.97
80566;BME280;69915;54.862;10.730;2024-03-06T09:59:13;102571.63;;;5.78;94.05
80566;BME280;69915;54.862;10.730;2024-03-06T10:01:50;102574.97;;;5.87;94.37
80566;BME280;69915;54.862;10.730;2024-03-06T10:04:22;102576.00;;;5.79;94.73
80566;BME280;69915;54.862;10.730;2024-03-06T10:06:49;102582.03;;;5.81;96.24
80566;BME280;69915;54.862;10.730;2024-03-06T10:09:18;102590.09;;;6.08;96.99
80566;BME280;69915;54.862;10.730;2024-03-06T10:11:45;102586.47;;;6.20;95.79
80566;BME280;69915;54.862;10.730;2024-03-06T10:14:11;102580.34;;;5.93;95.19
80566;BME280;69915;54.862;10.730;2024-03-06T10:16:54;102590.78;;;5.96;95.12
80566;BME280;69915;54.862;10.730;2024-03-06T10:19:22;102597.28;;;5.95;95.22
80566;BME280;69915;54.862;10.730;2024-03-06T10:21:48;102581.63;;;5.84;93.84
80566;BME280;69915;54.862;10.730;2024-03-06T10:24:25;102594.78;;;5.87;94.13
80566;BME280;69915;54.862;10.730;2024-03-06T10:26:52;102591.00;;;5.95;93.78
80566;BME280;69915;54.862;10.730;2024-03-06T10:29:21;102587.19;;;6.02;94.02
80566;BME280;69915;54.862;10.730;2024-03-06T10:31:58;102598.41;;;6.13;95.51
80566;BME280;69915;54.862;10.730;2024-03-06T10:34:25;102588.34;;;6.20;94.32
80566;BME280;69915;54.862;10.730;2024-03-06T10:36:56;102579.22;;;6.08;91.52
80566;BME280;69915;54.862;10.730;2024-03-06T10:39:23;102588.72;;;6.30;91.06
80566;BME280;69915;54.862;10.730;2024-03-06T10:41:57;102589.91;;;6.34;90.67
80566;BME280;69915;54.862;10.730;2024-03-06T10:44:25;102596.59;;;6.38;90.31
80566;BME280;69915;54.862;10.730;2024-03-06T10:47:01;102577.97;;;6.41;90.02
80566;BME280;69915;54.862;10.730;2024-03-06T10:49:28;102590.44;;;6.49;90.76
80566;BME280;69915;54.862;10.730;2024-03-06T10:52:04;102594.66;;;6.70;91.43
80566;BME280;69915;54.862;10.730;2024-03-06T10:54:34;102592.44;;;6.85;91.31
80566;BME280;69915;54.862;10.730;2024-03-06T10:57:04;102589.50;;;6.86;90.24
80566;BME280;69915;54.862;10.730;2024-03-06T10:59:31;102589.28;;;6.88;88.84
80566;BME280;69915;54.862;10.730;2024-03-06T11:01:58;102592.59;;;6.65;88.43
80566;BME280;69915;54.862;10.730;2024-03-06T11:04:29;102604.66;;;6.51;89.56
80566;BME280;69915;54.862;10.730;2024-03-06T11:06:59;102597.19;;;6.65;90.60
80566;BME280;69915;54.862;10.730;2024-03-06T11:09:26;102603.47;;;6.65;89.71
80566;BME280;69915;54.862;10.730;2024-03-06T11:11:53;102603.19;;;6.48;88.87
80566;BME280;69915;54.862;10.730;2024-03-06T11:14:23;102604.84;;;6.49;87.78
80566;BME280;69915;54.862;10.730;2024-03-06T11:17:00;102604.56;;;6.33;87.45
80566;BME280;69915;54.862;10.730;2024-03-06T11:19:31;102608.28;;;6.38;87.92
80566;BME280;69915;54.862;10.730;2024-03-06T11:21:57;102612.47;;;6.66;87.47
80566;BME280;69915;54.862;10.730;2024-03-06T11:24:32;102601.41;;;6.61;87.53
80566;BME280;69915;54.862;10.730;2024-03-06T11:27:02;102615.19;;;6.90;88.41
80566;BME280;69915;54.862;10.730;2024-03-06T11:30:08;102614.81;;;7.30;87.39
80566;BME280;69915;54.862;10.730;2024-03-06T11:32:58;102623.28;;;7.76;88.09
80566;BME280;69915;54.862;10.730;2024-03-06T11:35:28;102580.25;;;7.96;83.86
80566;BME280;69915;54.862;10.730;2024-03-06T11:37:54;102600.38;;;7.95;84.77
80566;BME280;69915;54.862;10.730;2024-03-06T11:40:26;102586.09;;;8.00;83.47
80566;BME280;69915;54.862;10.730;2024-03-06T11:42:52;102524.88;;;8.14;77.92
80566;BME280;69915;54.862;10.730;2024-03-06T11:45:19;102539.66;;;7.95;77.90
80566;BME280;69915;54.862;10.730;2024-03-06T11:47:59;102531.53;;;7.77;76.11
80566;BME280;69915;54.862;10.730;2024-03-06T11:50:27;102583.44;;;7.93;80.40
80566;BME280;69915;54.862;10.730;2024-03-06T11:52:59;102551.94;;;7.86;77.21
80566;BME280;69915;54.862;10.730;2024-03-06T11:55:25;102539.09;;;7.75;76.30
80566;BME280;69915;54.862;10.730;2024-03-06T11:57:52;102569.81;;;7.63;77.71
80566;BME280;69915;54.862;10.730;2024-03-06T12:00:22;102580.53;;;7.77;78.49
80566;BME280;69915;54.862;10.730;2024-03-06T12:02:48;102552.78;;;7.68;76.43
80566;BME280;69915;54.862;10.730;2024-03-06T12:05:16;102551.63;;;7.46;75.98
80566;BME280;69915;54.862;10.730;2024-03-06T12:07:46;102564.91;;;7.18;76.75
80566;BME280;69915;54.862;10.730;2024-03-06T12:10:13;102572.38;;;7.22;76.55
80566;BME280;69915;54.862;10.730;2024-03-06T12:12:40;102578.16;;;7.32;77.77
80566;BME280;69915;54.862;10.730;2024-03-06T12:15:09;102595.44;;;7.56;77.97
80566;BME280;69915;54.862;10.730;2024-03-06T12:17:44;102604.84;;;7.90;78.67
80566;BME280;69915;54.862;10.730;2024-03-06T12:20:14;102604.34;;;8.29;80.21
80566;BME280;69915;54.862;10.730;2024-03-06T12:22:50;102549.91;;;8.64;75.99
80566;BME280;69915;54.862;10.730;2024-03-06T12:25:23;102497.66;;;8.26;72.19
80566;BME280;69915;54.862;10.730;2024-03-06T12:27:50;102574.25;;;8.36;75.63
80566;BME280;69915;54.862;10.730;2024-03-06T12:30:17;102539.25;;;8.21;73.74
80566;BME280;69915;54.862;10.730;2024-03-06T12:33:03;102555.34;;;8.41;74.60
80566;BME280;69915;54.862;10.730;2024-03-06T12:35:30;102530.81;;;8.64;73.20
80566;BME280;69915;54.862;10.730;2024-03-06T12:37:57;102526.88;;;8.60;72.98
80566;BME280;69915;54.862;10.730;2024-03-06T12:40:23;102567.22;;;8.69;74.70
80566;BME280;69915;54.862;10.730;2024-03-06T12:42:50;102559.22;;;8.45;74.56